Time;durP1;ratioP1;P1;durP2;ratioP2;P2;SDS_P1;SDS_P2;PMS_P1;PMS_P2;Temp;Humidity;BMP_temperature;BMP_pressure;BME280_temperature;BME280_humidity;BME280_pressure;Samples;Min_cycle;Max_cycle;Signal;HPM_P1;HPM_P2
2021/09/14 00:07:22;;;;;;;11.82;7.32;;;;;;;16.35;73.44;100302.19;20844603;28;20116;-81
2021/09/14 00:17:26;;;;;;;13.23;7.68;;;;;;;16.24;73.85;100305.28;20845636;28;20120;-82
2021/09/14 00:27:28;;;;;;;;;;;;;;;16.08;74.55;100298.88;20848465;28;20156;-82
2021/09/14 00:37:32;;;;;;;11.00;7.32;;;;;;;15.91;75.09;100291.66;20846549;28;19921;-82
2021/09/14 00:47:37;;;;;;;10.57;6.80;;;;;;;15.78;75.77;100287.75;20843355;28;20048;-82
2021/09/14 00:57:39;;;;;;;11.18;7.43;;;;;;;15.64;76.48;100289.16;20845835;28;20068;-82
2021/09/14 01:07:42;;;;;;;12.20;7.50;;;;;;;15.57;76.59;100282.38;20845574;28;20037;-82
2021/09/14 01:17:44;;;;;;;10.52;7.18;;;;;;;15.39;77.88;100291.81;20843206;28;20050;-82
2021/09/14 01:27:47;;;;;;;12.32;7.35;;;;;;;15.37;78.28;100290.16;20839257;28;20056;-82
2021/09/14 01:38:06;;;;;;;11.13;7.50;;;;;;;15.08;80.15;100294.72;20837495;28;20042;-82
2021/09/14 01:48:08;;;;;;;12.13;7.88;;;;;;;15.00;80.46;100290.66;20837827;28;20049;-81
2021/09/14 01:58:10;;;;;;;12.60;7.60;;;;;;;14.77;81.67;100289.69;20838551;28;20084;-81
2021/09/14 02:08:27;;;;;;;11.07;7.53;;;;;;;14.76;81.14;100277.41;20833264;28;20470;-82
2021/09/14 03:00:00;;;;;;;11.45;7.75;;;;;;;14.74;81.99;100275.72;20832387;28;20049;-82
2021/09/14 03:10:03;;;;;;;13.15;8.25;;;;;;;14.66;82.95;100276.00;20830979;28;20128;-82
2021/09/14 03:20:05;;;;;;;12.63;8.32;;;;;;;14.58;82.72;100268.38;20836967;28;20045;-81
2021/09/14 03:30:08;;;;;;;12.90;8.50;;;;;;;14.37;84.10;100287.47;20860410;28;20045;-82
2021/09/14 03:40:10;;;;;;;14.57;8.50;;;;;;;14.35;83.77;100276.16;20857927;28;20108;-81
2021/09/14 03:50:13;;;;;;;11.48;8.85;;;;;;;14.30;83.42;100280.69;20862456;28;20092;-81
2021/09/14 04:00:14;;;;;;;12.27;9.05;;;;;;;14.18;83.84;100283.72;20855518;28;20400;-81
2021/09/14 04:10:17;;;;;;;12.65;9.00;;;;;;;14.06;84.54;100270.06;20859081;28;20049;-81
2021/09/14 04:20:18;;;;;;;11.73;8.70;;;;;;;13.90;84.92;100271.47;20860966;28;20096;-81
2021/09/14 04:30:21;;;;;;;10.93;8.77;;;;;;;13.94;84.80;100281.00;20858430;28;20045;-82
2021/09/14 04:40:23;;;;;;;12.07;9.50;;;;;;;13.97;84.44;100272.97;20846955;28;20268;-81
2021/09/14 04:50:25;;;;;;;12.10;9.43;;;;;;;13.97;84.05;100280.00;20842164;28;20454;-81
2021/09/14 05:00:27;;;;;;;13.48;9.02;;;;;;;13.95;83.82;100282.72;20843130;28;20411;-81
2021/09/14 05:10:29;;;;;;;15.63;10.00;;;;;;;13.97;83.74;100272.13;20825684;28;20058;-81
2021/09/14 05:20:31;;;;;;;13.38;9.45;;;;;;;13.89;84.72;100277.63;20825739;28;20099;-81
2021/09/14 05:30:33;;;;;;;16.05;9.55;;;;;;;13.92;84.89;100282.78;20843247;28;20136;-82
2021/09/14 05:40:35;;;;;;;16.88;9.98;;;;;;;14.02;84.58;100284.22;20844195;28;20099;-81
2021/09/14 05:50:38;;;;;;;13.75;10.10;;;;;;;14.16;84.38;100288.19;20838271;28;20107;-81
2021/09/14 06:00:40;;;;;;;15.90;10.75;;;;;;;14.44;84.20;100307.44;20840483;28;20561;-82
2021/09/14 06:10:42;;;;;;;19.05;12.55;;;;;;;14.77;82.79;100294.94;20841881;28;20407;-82
2021/09/14 06:20:45;;;;;;;18.58;13.10;;;;;;;14.94;82.97;100307.53;20856162;28;20107;-80
2021/09/14 06:30:47;;;;;;;16.95;12.45;;;;;;;15.17;82.60;100313.75;20856803;28;20045;-80
2021/09/14 06:40:49;;;;;;;18.65;13.45;;;;;;;15.44;82.62;100320.69;20876801;28;20179;-81
2021/09/14 06:50:51;;;;;;;20.08;13.65;;;;;;;15.61;82.65;100318.25;20838166;28;20115;-81
2021/09/14 07:00:54;;;;;;;21.08;14.75;;;;;;;16.19;81.22;100319.56;20838276;28;20124;-81
2021/09/14 07:10:56;;;;;;;22.38;14.10;;;;;;;16.36;81.10;100322.41;20746490;28;20080;-81
2021/09/14 07:20:58;;;;;;;19.33;12.98;;;;;;;16.51;80.43;100329.69;20758353;23;20074;-71
2021/09/14 07:31:00;;;;;;;18.70;13.50;;;;;;;16.76;80.25;100323.41;20738235;28;20042;-72
2021/09/14 07:41:03;;;;;;;18.00;14.15;;;;;;;17.08;79.01;100338.78;20780243;28;20052;-71
2021/09/14 07:51:05;;;;;;;15.80;12.00;;;;;;;17.36;78.23;100332.28;20818685;28;20050;-72
2021/09/14 08:01:07;;;;;;;16.45;12.90;;;;;;;17.88;77.28;100332.56;20818682;28;20461;-72
2021/09/14 08:11:09;;;;;;;17.20;12.15;;;;;;;18.38;75.02;100326.63;20824583;28;20050;-72
2021/09/14 08:21:12;;;;;;;19.63;13.55;;;;;;;18.65;74.21;100325.25;20833063;28;20045;-72
2021/09/14 08:31:14;;;;;;;13.95;10.20;;;;;;;19.20;73.86;100306.50;20831958;28;20103;-71
2021/09/14 08:41:16;;;;;;;15.45;10.68;;;;;;;19.34;72.74;100324.34;20832320;28;20100;-72
2021/09/14 08:51:18;;;;;;;12.52;9.02;;;;;;;19.69;72.90;100326.94;20831644;28;20108;-72
2021/09/14 09:01:21;;;;;;;15.00;10.65;;;;;;;20.08;70.70;100312.41;20830659;28;20127;-72
2021/09/14 09:11:24;;;;;;;15.37;9.80;;;;;;;20.27;71.17;100310.41;20830491;28;20056;-72
2021/09/14 09:21:28;;;;;;;13.38;8.45;;;;;;;20.54;70.45;100300.00;20828366;28;20095;-73
2021/09/14 09:31:32;;;;;;;10.88;7.75;;;;;;;20.88;68.36;100313.97;20828169;28;20048;-72
2021/09/14 09:41:38;;;;;;;12.30;8.17;;;;;;;21.13;68.05;100316.88;20827980;28;20442;-72
2021/09/14 09:51:40;;;;;;;10.93;7.28;;;;;;;21.42;67.68;100304.47;20826376;28;20053;-72
2021/09/14 10:01:43;;;;;;;9.50;7.38;;;;;;;22.00;65.95;100290.09;20826354;28;20395;-72
2021/09/14 10:11:56;;;;;;;11.40;6.75;;;;;;;22.70;66.22;100287.22;20810223;28;20049;-72
2021/09/14 10:22:07;;;;;;;12.40;7.38;;;;;;;22.91;63.42;100284.09;20742745;28;20053;-72
2021/09/14 10:32:14;;;;;;;11.00;6.30;;;;;;;22.87;64.23;100280.75;20741574;28;20046;-72
2021/09/14 10:42:21;;;;;;;8.15;5.30;;;;;;;23.12;63.38;100287.09;20741031;28;20177;-72
2021/09/14 10:52:38;;;;;;;8.38;5.65;;;;;;;23.21;63.84;100287.31;20739752;28;20551;-72
2021/09/14 11:02:40;;;;;;;10.10;5.70;;;;;;;23.26;63.56;100274.47;20739150;28;20105;-72
2021/09/14 11:12:46;;;;;;;10.73;6.82;;;;;;;23.54;63.53;100270.69;20762240;28;20049;-73
2021/09/14 11:22:49;;;;;;;9.85;6.03;;;;;;;23.51;62.50;100259.38;20823070;28;20049;-72
2021/09/14 11:32:52;;;;;;;7.97;5.90;;;;;;;23.55;63.57;100264.38;20820138;28;20104;-72
2021/09/14 11:42:59;;;;;;;9.80;6.38;;;;;;;23.62;63.72;100270.16;20823755;28;20053;-73
2021/09/14 11:53:22;;;;;;;10.95;6.30;;;;;;;23.62;64.54;100266.59;20836021;28;20057;-72
2021/09/14 12:03:34;;;;;;;11.55;6.90;;;;;;;24.14;63.43;100257.47;20834743;28;20553;-73
2021/09/14 12:13:43;;;;;;;7.72;6.28;;;;;;;24.81;61.74;100255.91;20807527;28;20096;-73
2021/09/14 12:23:45;;;;;;;10.43;6.75;;;;;;;24.64;60.32;100242.13;20752338;28;20050;-73
2021/09/14 12:33:47;;;;;;;10.95;6.20;;;;;;;24.50;61.42;100241.38;20750688;28;20038;-72
2021/09/14 12:43:50;;;;;;;11.70;6.22;;;;;;;24.29;62.39;100238.47;20750575;28;20073;-72
2021/09/14 12:53:51;;;;;;;8.57;5.75;;;;;;;24.45;62.00;100237.34;20746435;28;20054;-71
2021/09/14 13:03:53;;;;;;;8.15;5.68;;;;;;;24.77;60.47;100233.03;20748514;28;20466;-72
2021/09/14 13:24:16;;;;;;;7.78;5.32;;;;;;;25.17;56.90;100218.38;20666949;28;20133;-72
2021/09/14 13:34:17;;;;;;;8.85;5.65;;;;;;;25.55;56.05;100220.66;20664658;28;20046;-72
2021/09/14 13:54:30;;;;;;;8.38;4.85;;;;;;;25.63;56.33;100204.78;20670396;28;20042;-71
2021/09/14 14:04:32;;;;;;;7.97;4.82;;;;;;;25.11;57.85;100203.63;20744192;28;20435;-71
2021/09/14 14:14:33;;;;;;;6.88;4.78;;;;;;;25.27;57.82;100204.09;20779761;28;20122;-71
2021/09/14 14:24:36;;;;;;;9.65;5.30;;;;;;;25.64;56.51;100195.78;20821667;28;20491;-71
2021/09/14 14:34:54;;;;;;;8.57;4.90;;;;;;;25.60;56.32;100205.03;20821123;28;20042;-72
2021/09/14 14:44:56;;;;;;;6.80;4.65;;;;;;;25.40;57.34;100208.50;20821757;28;20045;-71
2021/09/14 14:54:58;;;;;;;7.15;4.80;;;;;;;25.30;57.91;100214.59;20821931;28;20045;-71
2021/09/14 15:05:11;;;;;;;8.37;4.97;;;;;;;25.27;58.01;100206.78;20820055;28;20053;-71
2021/09/14 15:15:13;;;;;;;11.80;5.10;;;;;;;24.86;59.01;100201.13;20777363;28;20565;-71
2021/09/14 15:25:15;;;;;;;11.05;5.18;;;;;;;24.58;61.78;100197.97;20739415;28;20062;-71
2021/09/14 15:35:17;;;;;;;7.45;5.30;;;;;;;24.29;63.23;100198.34;20737430;28;20496;-71
2021/09/14 15:45:19;;;;;;;8.35;5.88;;;;;;;24.20;63.21;100199.03;20737305;28;20050;-71
2021/09/14 15:55:21;;;;;;;8.88;5.55;;;;;;;24.24;63.83;100196.94;20734901;28;20049;-71
2021/09/14 16:05:23;;;;;;;8.35;5.85;;;;;;;24.16;63.79;100194.88;20735495;28;20042;-71
2021/09/14 16:15:26;;;;;;;9.00;5.53;;;;;;;24.11;64.11;100191.69;20780471;28;20097;-71
2021/09/14 16:25:28;;;;;;;8.70;6.18;;;;;;;23.93;65.21;100179.69;20817773;28;20049;-71
2021/09/14 16:35:33;;;;;;;7.50;6.10;;;;;;;23.68;66.43;100162.81;20828530;28;20072;-71
2021/09/14 16:45:35;;;;;;;9.85;6.22;;;;;;;23.67;67.63;100157.59;20831501;28;20050;-71
2021/09/14 16:55:37;;;;;;;9.98;6.80;;;;;;;23.38;71.04;100160.56;20834143;28;20037;-71
2021/09/14 17:05:38;;;;;;;8.23;6.25;;;;;;;23.12;71.67;100154.41;20831072;28;20096;-71
2021/09/14 17:15:40;;;;;;;9.02;6.50;;;;;;;23.05;71.71;100153.16;20784188;28;20397;-71
2021/09/14 17:25:42;;;;;;;14.10;7.40;;;;;;;23.02;70.70;100127.50;20747959;28;20180;-71
2021/09/14 17:35:44;;;;;;;12.23;7.82;;;;;;;22.85;71.32;100141.16;20745159;28;20600;-71
2021/09/14 17:45:49;;;;;;;10.15;7.05;;;;;;;22.56;73.77;100147.69;20745616;28;20455;-71
2021/09/14 17:55:52;;;;;;;9.45;6.55;;;;;;;22.37;75.41;100150.78;20745162;28;20046;-71
2021/09/14 18:05:56;;;;;;;9.10;6.77;;;;;;;22.29;75.83;100138.00;20742613;28;20052;-71
2021/09/14 18:15:58;;;;;;;13.05;7.93;;;;;;;21.98;77.16;100150.69;20792405;28;20108;-71
2021/09/14 18:26:00;;;;;;;12.25;8.48;;;;;;;21.74;78.43;100162.97;20800395;28;20046;-71
2021/09/14 18:36:02;;;;;;;10.05;7.78;;;;;;;21.54;79.21;100176.75;20739941;28;20424;-71
2021/09/14 18:46:04;;;;;;;11.50;8.40;;;;;;;21.38;79.84;100176.91;20740892;28;20104;-71
2021/09/14 18:56:06;;;;;;;11.90;9.07;;;;;;;21.39;79.32;100174.13;20739520;28;20050;-71
2021/09/14 19:06:08;;;;;;;12.75;9.35;;;;;;;20.93;81.70;100174.31;20738197;28;20447;-71
2021/09/14 19:16:10;;;;;;;12.48;9.02;;;;;;;20.80;82.01;100181.38;20789151;28;20411;-71
2021/09/14 19:26:12;;;;;;;12.15;8.88;;;;;;;20.69;82.40;100183.81;20819594;28;20088;-71
2021/09/14 19:36:17;;;;;;;11.93;9.18;;;;;;;20.49;83.31;100190.34;20819253;28;20046;-71
2021/09/14 19:46:19;;;;;;;12.05;9.07;;;;;;;20.47;83.20;100179.81;20819224;28;20484;-72
2021/09/14 19:56:21;;;;;;;12.25;10.07;;;;;;;20.28;84.07;100180.97;20818755;28;20049;-72
2021/09/14 20:06:22;;;;;;;13.32;10.70;;;;;;;20.05;85.39;100185.00;20825341;28;20096;-71
2021/09/14 20:16:25;;;;;;;12.43;10.80;;;;;;;19.91;85.58;100183.13;20781698;28;20045;-72
2021/09/14 20:26:27;;;;;;;12.38;9.52;;;;;;;19.75;85.93;100179.66;20751902;28;20050;-72
2021/09/14 20:36:28;;;;;;;12.57;9.95;;;;;;;19.66;85.42;100184.53;20749842;28;20046;-72
2021/09/14 20:46:30;;;;;;;14.20;10.15;;;;;;;19.48;86.45;100193.50;20748935;28;20104;-72
2021/09/14 20:56:32;;;;;;;13.07;10.32;;;;;;;19.40;86.73;100179.78;20749085;28;20133;-72
2021/09/14 21:06:34;;;;;;;12.05;10.48;;;;;;;19.38;86.63;100187.00;20747515;28;20038;-72
2021/09/14 21:16:36;;;;;;;13.43;11.13;;;;;;;19.37;86.49;100174.66;20800395;28;20108;-71
2021/09/14 21:26:38;;;;;;;13.32;10.50;;;;;;;19.34;86.53;100174.81;20810419;28;20045;-72
2021/09/14 21:36:39;;;;;;;15.38;13.02;;;;;;;19.25;86.62;100178.00;20745197;28;20065;-72
2021/09/14 21:46:48;;;;;;;13.32;11.68;;;;;;;19.25;86.43;100185.94;20744828;28;20054;-72
2021/09/14 21:56:50;;;;;;;13.73;11.52;;;;;;;19.21;86.67;100188.78;20744590;28;20045;-71
2021/09/14 22:06:53;;;;;;;12.48;10.73;;;;;;;19.22;86.72;100179.88;20742729;28;20376;-72
2021/09/14 22:16:54;;;;;;;14.98;11.65;;;;;;;19.19;86.16;100180.03;20742522;28;20046;-72
2021/09/14 22:26:56;;;;;;;13.73;10.65;;;;;;;18.94;87.25;100191.13;20740219;28;20045;-71
2021/09/14 22:36:58;;;;;;;13.02;10.88;;;;;;;18.91;87.73;100182.47;20739798;28;20042;-72
2021/09/14 22:47:00;;;;;;;13.27;10.45;;;;;;;18.85;88.01;100183.66;20739263;28;20053;-72
2021/09/14 22:57:03;;;;;;;16.90;11.77;;;;;;;18.80;88.48;100184.84;20738814;28;20470;-72
2021/09/14 23:07:04;;;;;;;12.10;10.05;;;;;;;18.84;88.01;100175.81;20737562;28;20100;-71
2021/09/14 23:17:06;;;;;;;11.82;10.40;;;;;;;18.93;87.76;100180.63;20737841;28;20046;-71
2021/09/14 23:27:08;;;;;;;14.23;11.10;;;;;;;19.02;86.84;100172.16;20736837;28;20700;-72
2021/09/14 23:37:10;;;;;;;12.60;10.63;;;;;;;19.07;86.86;100162.16;20736451;28;20385;-72
2021/09/14 23:47:12;;;;;;;14.55;10.18;;;;;;;19.02;87.03;100163.31;20753000;28;20053;-72
2021/09/14 23:57:13;;;;;;;13.27;9.80;;;;;;;19.00;87.28;100155.44;20752379;28;20455;-71
